Time;durP1;ratioP1;P1;durP2;ratioP2;P2;SDS_P1;SDS_P2;PMS_P1;PMS_P2;Temp;Humidity;BMP_temperature;BMP_pressure;BME280_temperature;BME280_humidity;BME280_pressure;Samples;Min_cycle;Max_cycle;Signal;HPM_P1;HPM_P2
2021/07/13 00:02:05;;;;;;;21.80;19.02;;;;;;;18.35;88.07;100929.63;5092707;28;20051;-57
2021/07/13 00:04:33;;;;;;;22.60;18.92;;;;;;;18.41;87.66;100931.66;5093563;28;20494;-57
2021/07/13 00:07:00;;;;;;;21.30;18.85;;;;;;;18.44;87.16;100935.03;5091762;28;20089;-47
2021/07/13 00:09:27;;;;;;;20.38;18.17;;;;;;;18.45;87.14;100934.03;5092117;28;20534;-50
2021/07/13 00:11:56;;;;;;;22.30;19.10;;;;;;;18.47;87.23;100945.38;5091513;28;20055;-47
2021/07/13 00:14:23;;;;;;;21.05;18.55;;;;;;;18.45;87.41;100945.53;5094892;28;20094;-50
2021/07/13 00:16:50;;;;;;;21.70;19.02;;;;;;;18.44;87.92;100943.84;5094608;28;20043;-50
2021/07/13 00:19:18;;;;;;;23.00;18.95;;;;;;;18.36;88.07;100951.75;5094298;28;20048;-46
2021/07/13 00:21:44;;;;;;;22.45;18.77;;;;;;;18.39;87.93;100946.13;5092351;28;20470;-47
2021/07/13 00:24:12;;;;;;;20.40;17.58;;;;;;;18.40;87.83;100948.63;5091998;28;20130;-49
2021/07/13 00:26:39;;;;;;;20.48;17.33;;;;;;;18.39;87.62;100949.63;5073930;28;20048;-49
2021/07/13 00:29:06;;;;;;;20.02;17.83;;;;;;;18.45;87.22;100958.00;5091554;28;20052;-51
2021/07/13 00:31:33;;;;;;;21.40;17.92;;;;;;;18.48;87.00;100958.53;5090505;28;20498;-47
2021/07/13 00:34:01;;;;;;;20.20;17.58;;;;;;;18.43;87.06;100971.44;5089860;28;20048;-48
2021/07/13 00:36:27;;;;;;;20.13;17.92;;;;;;;18.42;87.11;100975.94;5091526;28;20063;-52
2021/07/13 00:38:54;;;;;;;20.63;17.98;;;;;;;18.43;87.19;100976.78;5090193;28;20073;-50
2021/07/13 00:41:21;;;;;;;22.70;18.38;;;;;;;18.42;86.95;100973.28;5091347;28;20048;-52
2021/07/13 00:43:48;;;;;;;21.42;18.25;;;;;;;18.47;86.72;100975.50;5093023;28;20052;-52
2021/07/13 00:46:15;;;;;;;20.75;18.25;;;;;;;18.45;86.28;100973.97;5092662;28;20052;-50
2021/07/13 00:48:43;;;;;;;23.15;18.90;;;;;;;18.40;86.33;100979.75;5089985;28;20538;-50
2021/07/13 00:51:10;;;;;;;21.50;19.13;;;;;;;18.39;86.51;100975.41;5072605;28;20101;-50
2021/07/13 00:53:40;;;;;;;22.33;19.92;;;;;;;18.42;87.10;100969.81;5087970;28;20078;-52
2021/07/13 00:56:06;;;;;;;22.98;20.00;;;;;;;18.39;87.02;100968.28;5101707;28;20058;-47
2021/07/13 00:58:33;;;;;;;23.77;19.67;;;;;;;18.47;86.49;100964.84;5103755;28;20077;-57
2021/07/13 01:01:00;;;;;;;24.25;20.45;;;;;;;18.35;86.59;100969.56;5109192;28;20052;-57
2021/07/13 01:03:27;;;;;;;22.27;19.65;;;;;;;18.33;86.29;100965.34;5106265;28;20046;-57
2021/07/13 01:05:54;;;;;;;22.58;19.05;;;;;;;18.33;86.55;100976.84;5102759;28;21128;-51
2021/07/13 01:08:26;;;;;;;22.45;19.30;;;;;;;18.32;86.79;100975.16;5099026;28;20036;-48
2021/07/13 01:11:20;;;;;;;21.38;18.92;;;;;;;18.26;87.56;100975.75;5107393;28;20092;-49
2021/07/13 01:14:31;;;;;;;22.83;19.20;;;;;;;18.29;87.48;100975.44;5100828;28;20130;-49
2021/07/13 01:17:09;;;;;;;20.20;17.77;;;;;;;18.27;87.20;100969.47;5085193;28;20480;-50
2021/07/13 01:20:14;;;;;;;25.98;19.52;;;;;;;18.34;87.44;100965.22;5058699;28;20047;-57
2021/07/13 01:22:47;;;;;;;23.02;17.98;;;;;;;18.37;87.06;100962.25;5084057;28;20062;-50
2021/07/13 01:25:26;;;;;;;20.17;17.88;;;;;;;18.34;87.01;100957.22;5081569;28;20036;-50
2021/07/13 01:28:01;;;;;;;21.10;18.17;;;;;;;18.38;87.08;100950.63;5089555;28;20058;-51
2021/07/13 01:30:31;;;;;;;21.63;19.23;;;;;;;18.39;87.19;100943.44;5107889;28;20549;-50
2021/07/13 01:33:14;;;;;;;22.20;19.25;;;;;;;18.40;87.19;100937.97;5098673;28;20039;-57
2021/07/13 01:36:00;;;;;;;;;;;;;;;18.41;87.03;100944.97;5096235;28;20566;-57
2021/07/13 01:38:28;;;;;;;21.05;17.42;;;;;;;18.44;87.21;100940.38;5092247;28;19920;-57
2021/07/13 01:40:59;;;;;;;21.15;18.88;;;;;;;18.43;86.76;100936.84;5090808;28;20095;-47
2021/07/13 01:43:27;;;;;;;21.40;19.10;;;;;;;18.48;86.48;100939.06;5117617;27;20044;-57
2021/07/13 01:45:55;;;;;;;21.25;18.52;;;;;;;18.49;86.27;100930.09;5095817;28;20048;-52
2021/07/13 01:48:25;;;;;;;22.38;19.50;;;;;;;18.48;86.73;100933.75;5123458;27;20131;-46
2021/07/13 01:50:53;;;;;;;22.83;20.02;;;;;;;18.45;86.52;100923.38;5103099;28;20104;-52
2021/07/13 01:53:20;;;;;;;22.52;19.83;;;;;;;18.44;86.56;100919.06;5105899;28;20067;-50
2021/07/13 01:55:48;;;;;;;24.55;20.38;;;;;;;18.36;86.86;100917.97;5083100;28;20047;-51
2021/07/13 01:58:16;;;;;;;23.35;20.23;;;;;;;18.37;86.83;100906.34;5092927;28;20036;-48
2021/07/13 02:00:44;;;;;;;23.02;20.63;;;;;;;18.39;86.72;100907.03;5100852;28;20044;-50
2021/07/13 02:03:11;;;;;;;23.45;20.92;;;;;;;18.40;86.38;100903.38;5100367;28;20078;-51
2021/07/13 02:05:38;;;;;;;23.70;20.45;;;;;;;18.39;87.06;100900.84;5103145;28;20051;-49
2021/07/13 02:08:05;;;;;;;25.27;20.25;;;;;;;18.38;87.11;100904.53;5104160;28;20043;-51
2021/07/13 02:10:33;;;;;;;26.92;21.67;;;;;;;18.36;86.98;100912.63;5078419;28;20113;-49
2021/07/13 02:13:00;;;;;;;23.75;21.15;;;;;;;18.33;87.21;100910.28;5103098;28;20047;-49
2021/07/13 02:15:27;;;;;;;23.42;20.35;;;;;;;18.36;86.89;100912.63;5104273;28;20363;-51
2021/07/13 02:17:54;;;;;;;23.33;19.90;;;;;;;18.34;87.04;100914.63;5096283;28;20051;-57
2021/07/13 02:20:21;;;;;;;23.10;20.33;;;;;;;18.30;87.04;100907.94;5099728;28;20054;-57
2021/07/13 02:22:48;;;;;;;24.55;21.50;;;;;;;18.32;87.20;100926.41;5096017;28;20051;-50
2021/07/13 02:25:15;;;;;;;22.58;19.90;;;;;;;18.29;87.43;100919.56;5107146;28;20047;-50
2021/07/13 02:28:20;;;;;;;26.65;21.23;;;;;;;18.27;86.88;100934.00;5084233;28;20048;-57
2021/07/13 02:30:50;;;;;;;25.52;21.17;;;;;;;18.04;88.21;100932.56;5085404;28;20064;-57
2021/07/13 02:33:21;;;;;;;26.20;23.33;;;;;;;17.81;89.50;100925.91;5104975;28;20051;-57
2021/07/13 02:35:52;;;;;;;25.38;21.63;;;;;;;17.88;88.83;100933.16;5095483;28;20043;-57
2021/07/13 02:38:20;;;;;;;24.48;21.30;;;;;;;17.98;88.38;100938.47;5089637;28;20044;-51
2021/07/13 02:40:48;;;;;;;24.60;20.67;;;;;;;18.04;87.76;100932.56;5091096;28;20076;-52
2021/07/13 02:43:15;;;;;;;25.23;21.48;;;;;;;17.98;88.19;100929.66;5089861;28;20033;-49
2021/07/13 02:45:42;;;;;;;25.17;21.38;;;;;;;18.02;87.86;100921.22;5091158;28;20109;-51
2021/07/13 02:48:11;;;;;;;23.90;21.25;;;;;;;17.95;88.15;100920.13;5092143;28;20052;-57
2021/07/13 02:50:39;;;;;;;27.05;21.65;;;;;;;17.95;87.98;100925.47;5093080;28;20551;-57
2021/07/13 02:53:08;;;;;;;23.05;19.60;;;;;;;17.94;87.84;100923.78;5094062;28;20044;-58
2021/07/13 02:55:36;;;;;;;25.17;20.58;;;;;;;18.01;87.30;100929.34;5093906;28;20055;-52
2021/07/13 02:58:04;;;;;;;24.73;20.77;;;;;;;17.92;88.20;100932.91;5092947;28;20044;-51
2021/07/13 03:00:33;;;;;;;25.85;21.90;;;;;;;17.88;88.33;100932.31;5096114;28;20044;-57
2021/07/13 03:03:00;;;;;;;24.95;21.00;;;;;;;17.80;88.72;100924.22;5075211;28;20498;-57
2021/07/13 03:05:27;;;;;;;23.42;19.88;;;;;;;17.89;88.09;100923.38;5092590;28;20135;-57
2021/07/13 03:07:54;;;;;;;27.17;21.30;;;;;;;17.92;88.08;100919.59;5093882;28;20044;-57
2021/07/13 03:10:26;;;;;;;24.17;20.63;;;;;;;17.88;88.12;100913.69;5093641;28;20101;-57
2021/07/13 03:12:54;;;;;;;24.65;20.05;;;;;;;17.94;88.00;100914.97;5092826;28;20097;-57
2021/07/13 03:15:25;;;;;;;24.85;21.27;;;;;;;17.95;87.86;100912.16;5094314;28;20058;-47
2021/07/13 03:17:53;;;;;;;24.17;20.20;;;;;;;17.96;87.76;100913.84;5091016;28;20052;-50
2021/07/13 03:20:21;;;;;;;24.40;20.80;;;;;;;17.94;88.01;100910.47;5075268;28;20051;-51
2021/07/13 03:22:49;;;;;;;23.75;21.00;;;;;;;17.95;88.04;100913.97;5092424;28;20553;-51
2021/07/13 03:25:19;;;;;;;24.25;21.05;;;;;;;17.98;88.46;100911.84;5095365;28;20044;-51
2021/07/13 03:27:48;;;;;;;24.23;21.33;;;;;;;17.99;88.61;100918.84;5091568;28;20525;-50
2021/07/13 03:30:16;;;;;;;24.58;21.15;;;;;;;18.00;88.48;100912.56;5089754;28;20047;-49
2021/07/13 03:32:43;;;;;;;25.60;21.80;;;;;;;18.02;88.73;100917.72;5091295;28;20058;-52
2021/07/13 03:35:10;;;;;;;23.75;20.65;;;;;;;18.00;88.59;100907.25;5091863;28;20098;-58
2021/07/13 03:37:38;;;;;;;24.92;21.45;;;;;;;17.97;88.52;100907.53;5094334;28;20056;-49
2021/07/13 03:40:07;;;;;;;23.13;20.63;;;;;;;18.00;88.52;100901.91;5093564;28;20051;-57
2021/07/13 03:42:34;;;;;;;24.58;20.95;;;;;;;18.02;88.36;100896.44;5093899;28;20044;-58
2021/07/13 03:45:00;;;;;;;25.60;20.90;;;;;;;18.03;88.91;100895.47;5094929;28;20052;-58
2021/07/13 03:47:27;;;;;;;23.65;20.67;;;;;;;18.01;88.96;100890.28;5094454;28;20205;-58
2021/07/13 03:49:54;;;;;;;26.00;20.77;;;;;;;17.98;89.16;100898.53;5095407;28;20043;-58
2021/07/13 03:52:21;;;;;;;24.60;21.13;;;;;;;17.98;89.36;100887.91;5094319;28;20677;-58
2021/07/13 03:54:48;;;;;;;24.65;21.67;;;;;;;17.98;89.06;100892.41;5095411;28;20062;-56
2021/07/13 03:57:15;;;;;;;23.17;20.30;;;;;;;17.90;89.40;100895.75;5093699;28;20078;-56
2021/07/13 03:59:42;;;;;;;26.48;21.65;;;;;;;17.92;89.57;100899.16;5095418;28;20044;-56
2021/07/13 04:02:09;;;;;;;25.15;20.65;;;;;;;17.96;89.55;100905.03;5094187;28;20039;-56
2021/07/13 04:04:36;;;;;;;25.38;20.70;;;;;;;18.00;89.36;100893.94;5094179;28;20063;-56
2021/07/13 04:07:05;;;;;;;24.55;20.17;;;;;;;18.06;89.36;100890.69;5095186;28;20040;-56
2021/07/13 04:09:32;;;;;;;24.77;20.33;;;;;;;18.07;89.22;100887.03;5094000;28;20378;-56
2021/07/13 04:11:58;;;;;;;25.58;20.88;;;;;;;18.06;89.56;100888.03;5095162;28;20090;-56
2021/07/13 04:14:25;;;;;;;25.40;20.08;;;;;;;18.06;89.54;100889.84;5076909;28;20059;-56
2021/07/13 04:16:52;;;;;;;27.02;22.92;;;;;;;17.97;90.42;100896.91;5095254;28;20495;-56
2021/07/13 04:19:19;;;;;;;28.80;24.20;;;;;;;17.84;91.19;100894.53;5093265;28;20052;-57
2021/07/13 04:21:46;;;;;;;29.23;24.42;;;;;;;17.86;91.55;100894.38;5092252;28;20059;-52
2021/07/13 04:24:13;;;;;;;31.60;25.50;;;;;;;17.83;91.78;100897.34;5093451;28;20047;-51
2021/07/13 04:26:40;;;;;;;30.27;25.13;;;;;;;17.84;91.88;100896.34;5093124;28;20062;-51
2021/07/13 04:29:07;;;;;;;32.33;25.08;;;;;;;17.92;91.74;100907.13;5090309;28;20403;-50
2021/07/13 04:31:34;;;;;;;33.13;25.95;;;;;;;17.97;91.24;100907.53;5093220;28;20122;-52
2021/07/13 04:34:08;;;;;;;30.83;25.23;;;;;;;18.00;91.33;100907.25;5091864;28;20051;-58
2021/07/13 04:36:34;;;;;;;;;;;;;;;18.06;91.03;100919.09;5093262;28;20109;-51
2021/07/13 04:39:01;;;;;;;31.52;24.20;;;;;;;18.10;90.76;100920.50;5093064;28;19920;-58
2021/07/13 04:41:28;;;;;;;30.00;24.27;;;;;;;18.15;90.69;100914.75;5075310;28;20449;-58
2021/07/13 04:43:54;;;;;;;30.80;24.80;;;;;;;18.17;90.54;100910.09;5092222;28;20097;-58
2021/07/13 04:46:21;;;;;;;31.08;24.98;;;;;;;18.17;90.94;100910.91;5091065;28;20391;-58
2021/07/13 04:48:48;;;;;;;30.25;24.40;;;;;;;18.17;91.00;100918.06;5090936;28;20048;-58
2021/07/13 04:51:15;;;;;;;30.88;24.83;;;;;;;18.19;91.08;100911.63;5091037;28;20040;-58
2021/07/13 04:53:42;;;;;;;31.42;24.75;;;;;;;18.24;91.23;100913.81;5093060;28;20480;-52
2021/07/13 04:56:09;;;;;;;30.38;25.50;;;;;;;18.31;91.02;100916.75;5092016;28;20052;-51
2021/07/13 04:58:36;;;;;;;32.47;26.65;;;;;;;18.34;90.44;100924.44;5091694;28;20522;-58
2021/07/13 05:01:03;;;;;;;35.90;27.20;;;;;;;18.33;91.01;100920.94;5090905;28;20048;-48
2021/07/13 05:03:30;;;;;;;37.83;29.33;;;;;;;18.33;91.10;100922.75;5073208;28;20051;-53
2021/07/13 05:05:57;;;;;;;44.35;31.90;;;;;;;18.36;91.61;100917.13;5089830;28;20555;-52
2021/07/13 05:08:24;;;;;;;41.90;31.42;;;;;;;18.36;91.95;100923.28;5090481;28;20058;-58
2021/07/13 05:10:51;;;;;;;45.50;33.75;;;;;;;18.39;92.60;100927.47;5089939;28;20097;-62
2021/07/13 05:13:18;;;;;;;44.85;33.75;;;;;;;18.42;92.72;100928.03;5090309;28;20058;-58
2021/07/13 05:15:46;;;;;;;41.92;33.05;;;;;;;18.44;92.72;100935.03;5092421;28;20127;-59
2021/07/13 05:18:14;;;;;;;42.15;33.35;;;;;;;18.44;92.71;100937.69;5090981;28;20048;-57
2021/07/13 05:20:49;;;;;;;51.10;35.05;;;;;;;18.45;93.01;100936.69;5091566;28;20051;-57
2021/07/13 05:23:16;;;;;;;45.35;34.67;;;;;;;18.50;93.01;100939.75;5092638;28;20456;-59
2021/07/13 05:25:43;;;;;;;47.47;36.10;;;;;;;18.52;92.68;100937.78;5092388;28;20048;-56
2021/07/13 05:28:11;;;;;;;46.85;35.08;;;;;;;18.57;92.75;100940.84;5092580;28;20044;-57
2021/07/13 05:30:39;;;;;;;54.10;39.53;;;;;;;18.59;93.61;100934.34;5093387;28;20055;-51
2021/07/13 05:33:07;;;;;;;55.95;39.50;;;;;;;18.63;93.11;100942.91;5092210;28;20036;-52
2021/07/13 05:35:34;;;;;;;54.03;39.30;;;;;;;18.65;92.67;100935.59;5092094;28;20044;-58
2021/07/13 05:38:02;;;;;;;56.80;40.80;;;;;;;18.62;93.42;100927.91;5090514;28;20075;-59
2021/07/13 05:40:28;;;;;;;59.28;40.85;;;;;;;18.65;92.89;100924.94;5091898;28;20048;-56
2021/07/13 05:42:55;;;;;;;55.05;39.28;;;;;;;18.71;93.21;100937.66;5093222;28;20097;-50
2021/07/13 05:45:23;;;;;;;55.22;40.60;;;;;;;18.71;92.82;100934.97;5091735;28;20040;-57
2021/07/13 05:47:51;;;;;;;51.03;36.92;;;;;;;18.71;92.10;100937.66;5090079;28;20044;-54
2021/07/13 05:50:17;;;;;;;49.22;35.17;;;;;;;18.71;91.94;100942.97;5090138;28;20054;-57
2021/07/13 05:52:44;;;;;;;54.67;39.40;;;;;;;18.74;91.65;100944.50;5091901;28;20143;-57
2021/07/13 05:55:11;;;;;;;53.08;39.50;;;;;;;18.74;91.76;100947.16;5093066;28;20410;-57
2021/07/13 05:57:39;;;;;;;100.07;43.55;;;;;;;18.75;91.16;100954.19;5092648;28;20055;-53
2021/07/13 06:00:08;;;;;;;57.50;39.03;;;;;;;18.74;91.48;100955.97;5089143;28;20093;-52
2021/07/13 06:02:35;;;;;;;52.95;36.33;;;;;;;18.74;90.89;100955.16;5090505;28;20048;-51
2021/07/13 06:05:02;;;;;;;54.70;38.03;;;;;;;18.79;90.61;100949.38;5088617;28;20101;-53
2021/07/13 06:07:29;;;;;;;58.20;39.05;;;;;;;18.71;90.97;100953.63;5089908;28;20055;-57
2021/07/13 06:09:56;;;;;;;59.47;39.80;;;;;;;18.66;91.31;100950.56;5089288;28;20077;-57
2021/07/13 06:12:23;;;;;;;54.88;39.00;;;;;;;18.65;91.45;100956.91;5092755;28;20052;-57
2021/07/13 06:14:50;;;;;;;56.67;39.72;;;;;;;18.67;91.17;100960.25;5089976;28;20059;-57
2021/07/13 06:17:21;;;;;;;56.28;38.67;;;;;;;18.71;91.58;100964.28;5090324;28;20044;-57
2021/07/13 06:19:48;;;;;;;56.42;39.00;;;;;;;18.74;91.52;100966.63;5091671;28;20097;-57
2021/07/13 06:22:14;;;;;;;57.90;38.33;;;;;;;18.77;91.28;100967.34;5090324;28;20060;-57
2021/07/13 06:24:41;;;;;;;56.78;37.53;;;;;;;18.77;91.71;100967.34;5090123;28;20040;-57
2021/07/13 06:27:08;;;;;;;62.63;40.67;;;;;;;18.78;91.77;100974.34;5091344;28;20055;-57
2021/07/13 06:29:36;;;;;;;57.30;38.08;;;;;;;18.78;91.74;100969.03;5092817;28;20113;-56
2021/07/13 06:32:03;;;;;;;53.58;38.10;;;;;;;18.81;91.26;100974.88;5090302;28;20048;-56
2021/07/13 06:34:30;;;;;;;61.45;39.03;;;;;;;18.84;91.37;100977.25;5090128;28;20052;-56
2021/07/13 06:36:57;;;;;;;55.25;38.70;;;;;;;18.86;91.62;100983.25;5091072;28;20116;-55
2021/07/13 06:39:24;;;;;;;55.25;38.15;;;;;;;18.89;91.88;100976.81;5074549;28;20555;-56
2021/07/13 06:41:50;;;;;;;59.05;37.88;;;;;;;18.89;91.69;100982.16;5091295;28;20048;-56
2021/07/13 06:44:18;;;;;;;62.50;40.75;;;;;;;18.96;92.22;100985.88;5092532;28;20127;-56
2021/07/13 06:46:45;;;;;;;59.38;39.25;;;;;;;18.96;92.45;100983.22;5091137;28;20449;-57
2021/07/13 06:49:12;;;;;;;57.60;39.28;;;;;;;18.98;92.12;100988.38;5091031;28;20506;-57
2021/07/13 06:51:40;;;;;;;57.78;38.60;;;;;;;19.04;92.12;100983.28;5092748;28;20089;-57
2021/07/13 06:54:06;;;;;;;61.72;40.97;;;;;;;18.95;93.38;100989.56;5092373;28;20036;-57
2021/07/13 06:56:33;;;;;;;58.55;41.45;;;;;;;18.97;93.32;100984.06;5092375;28;20036;-57
2021/07/13 06:59:00;;;;;;;60.25;41.28;;;;;;;19.03;93.69;100988.78;5090889;28;20040;-57
2021/07/13 07:01:27;;;;;;;62.92;39.80;;;;;;;19.07;93.45;100993.66;5091021;28;20040;-57
2021/07/13 07:03:54;;;;;;;62.00;41.88;;;;;;;19.06;93.32;100981.31;5092175;28;20076;-57
2021/07/13 07:06:20;;;;;;;59.45;39.72;;;;;;;19.09;92.88;100989.00;5091494;28;20101;-57
2021/07/13 07:08:47;;;;;;;57.70;39.35;;;;;;;19.10;93.04;100987.16;5089662;28;20105;-57
2021/07/13 07:11:14;;;;;;;63.10;40.65;;;;;;;19.14;93.56;100985.06;5091218;28;20052;-57
2021/07/13 07:13:41;;;;;;;58.33;39.25;;;;;;;19.11;93.36;100991.53;5090802;28;20554;-57
2021/07/13 07:16:08;;;;;;;62.22;39.25;;;;;;;19.13;93.56;100992.22;5087316;28;20051;-57
2021/07/13 07:18:35;;;;;;;61.92;38.63;;;;;;;19.13;94.22;100989.56;5090169;28;20055;-57
2021/07/13 07:21:01;;;;;;;57.28;38.25;;;;;;;19.23;93.80;101000.13;5088218;28;20068;-57
2021/07/13 07:23:28;;;;;;;55.42;37.15;;;;;;;19.22;93.04;101001.13;5089853;28;20040;-56
2021/07/13 07:25:55;;;;;;;58.88;39.15;;;;;;;19.20;93.46;101003.94;5090736;28;20044;-57
2021/07/13 07:28:22;;;;;;;58.10;38.38;;;;;;;19.24;93.22;101004.47;5091891;28;20082;-57
2021/07/13 07:30:48;;;;;;;60.08;38.10;;;;;;;19.25;93.65;100999.00;5091352;28;20071;-56
2021/07/13 07:33:15;;;;;;;57.03;38.20;;;;;;;19.28;93.37;101005.00;5094173;28;20105;-57
2021/07/13 07:35:43;;;;;;;60.53;37.85;;;;;;;19.34;93.78;101007.06;5092160;28;20048;-57
2021/07/13 07:38:11;;;;;;;62.10;38.88;;;;;;;19.33;94.10;100995.53;5094111;28;20051;-57
2021/07/13 07:40:38;;;;;;;60.13;38.63;;;;;;;19.38;93.65;100995.09;5094280;28;20075;-57
2021/07/13 07:43:05;;;;;;;56.92;37.03;;;;;;;19.37;92.88;100993.41;5094336;28;20428;-57
2021/07/13 07:45:33;;;;;;;59.75;38.45;;;;;;;19.39;93.41;100994.94;5090887;28;20048;-47
2021/07/13 07:48:00;;;;;;;58.58;37.22;;;;;;;19.40;93.26;100996.63;5092459;28;20056;-48
2021/07/13 07:50:27;;;;;;;58.50;37.35;;;;;;;19.45;93.88;100995.31;5094078;28;20055;-49
2021/07/13 07:52:54;;;;;;;60.53;36.97;;;;;;;19.47;93.41;100993.31;5095253;28;20039;-46
2021/07/13 07:55:23;;;;;;;57.40;37.25;;;;;;;19.42;93.78;100999.94;5094258;28;20051;-48
2021/07/13 07:57:50;;;;;;;51.95;36.42;;;;;;;19.43;93.53;100990.97;5074225;28;20083;-47
2021/07/13 08:00:17;;;;;;;57.67;38.33;;;;;;;19.45;93.93;100992.66;5090794;28;20102;-47
2021/07/13 08:02:45;;;;;;;52.55;34.65;;;;;;;19.49;94.33;100994.03;5090589;28;20109;-56
2021/07/13 08:05:14;;;;;;;51.20;34.75;;;;;;;19.45;94.53;100993.47;5093962;28;20035;-56
2021/07/13 08:07:43;;;;;;;49.05;33.15;;;;;;;19.49;94.50;101000.19;5077432;28;20421;-57
2021/07/13 08:10:12;;;;;;;41.53;29.75;;;;;;;19.42;93.35;100991.97;5095124;28;20043;-57
2021/07/13 08:12:38;;;;;;;36.95;26.85;;;;;;;19.43;93.41;101000.81;5094207;28;20052;-58
2021/07/13 08:15:06;;;;;;;38.53;27.33;;;;;;;19.45;93.15;101000.66;5093957;28;20465;-55
2021/07/13 08:17:33;;;;;;;39.65;28.45;;;;;;;19.48;93.35;101003.81;5094958;28;20048;-58
2021/07/13 08:20:00;;;;;;;40.35;29.42;;;;;;;19.55;93.70;100998.72;5092630;28;20054;-48
2021/07/13 08:22:27;;;;;;;38.20;28.40;;;;;;;19.54;93.72;100989.06;5091923;28;20048;-58
2021/07/13 08:24:54;;;;;;;40.70;28.30;;;;;;;19.54;94.03;100995.22;5089865;28;20047;-48
2021/07/13 08:27:21;;;;;;;41.47;28.90;;;;;;;19.60;93.99;101001.75;5091835;28;20620;-54
2021/07/13 08:29:47;;;;;;;36.67;26.73;;;;;;;19.66;93.64;100989.63;5089846;28;20059;-58
2021/07/13 08:32:14;;;;;;;38.17;27.23;;;;;;;19.68;93.85;100995.66;5092336;28;20055;-57
2021/07/13 08:34:41;;;;;;;36.33;26.65;;;;;;;19.68;94.09;100995.66;5094360;28;20101;-57
2021/07/13 08:37:08;;;;;;;39.85;29.40;;;;;;;19.84;94.78;100998.47;5093958;28;20052;-57
2021/07/13 08:39:35;;;;;;;41.72;29.20;;;;;;;19.91;93.34;100988.00;5094387;28;20054;-57
2021/07/13 08:42:03;;;;;;;41.72;29.73;;;;;;;19.92;93.38;100989.69;5092667;28;20084;-57
2021/07/13 08:44:34;;;;;;;37.53;28.50;;;;;;;19.97;94.46;100992.69;5094439;28;20418;-57
2021/07/13 08:47:00;;;;;;;37.05;27.17;;;;;;;19.97;93.54;100992.69;5094047;28;20052;-57
2021/07/13 08:49:28;;;;;;;36.70;27.67;;;;;;;20.04;93.80;100999.09;5094313;28;20040;-57
2021/07/13 08:51:55;;;;;;;32.75;24.90;;;;;;;20.13;92.48;100993.78;5094028;28;20051;-57
2021/07/13 08:54:22;;;;;;;34.75;26.08;;;;;;;20.35;91.98;100989.72;5091243;28;20036;-57
2021/07/13 08:56:48;;;;;;;36.97;26.88;;;;;;;20.34;92.59;100994.25;5074061;28;20429;-57
2021/07/13 08:59:16;;;;;;;35.40;27.00;;;;;;;20.38;93.10;100987.56;5094109;28;20056;-57
2021/07/13 09:01:42;;;;;;;31.55;24.48;;;;;;;20.39;91.15;100991.06;5094120;28;20048;-58
2021/07/13 09:04:09;;;;;;;32.08;23.85;;;;;;;20.53;91.29;100987.78;5094282;28;20048;-57
2021/07/13 09:06:55;;;;;;;31.42;23.38;;;;;;;20.63;91.66;100987.66;5093720;28;20044;-58
2021/07/13 09:09:26;;;;;;;29.75;23.23;;;;;;;20.72;90.72;100985.84;5089896;28;20438;-57
2021/07/13 09:12:17;;;;;;;30.33;22.90;;;;;;;20.80;90.60;100985.06;5090570;28;20486;-58
2021/07/13 09:14:59;;;;;;;29.42;23.10;;;;;;;20.89;88.96;100994.75;5090073;28;20044;-58
2021/07/13 09:17:44;;;;;;;30.25;22.95;;;;;;;21.01;90.42;100989.91;5092925;28;20052;-58
2021/07/13 09:20:11;;;;;;;29.25;21.98;;;;;;;21.02;88.39;100987.06;5092804;28;20036;-58
2021/07/13 09:22:55;;;;;;;27.10;20.48;;;;;;;21.07;87.36;100992.78;5093921;28;20097;-58
2021/07/13 09:25:50;;;;;;;25.98;19.38;;;;;;;21.03;86.25;100988.75;5093684;28;20496;-53
2021/07/13 09:28:19;;;;;;;24.75;18.52;;;;;;;21.04;85.95;100995.78;5092447;28;20487;-52
2021/07/13 09:30:50;;;;;;;23.10;18.65;;;;;;;21.15;86.21;100991.13;5088192;28;20147;-52
2021/07/13 09:33:24;;;;;;;23.58;18.25;;;;;;;21.28;86.72;100983.41;5092409;28;20052;-51
2021/07/13 09:36:01;;;;;;;24.23;18.85;;;;;;;21.35;86.05;100981.78;5092000;28;20085;-52
2021/07/13 09:38:31;;;;;;;23.95;17.50;;;;;;;21.39;84.82;100983.09;5091823;28;20059;-59
2021/07/13 09:41:02;;;;;;;23.95;17.90;;;;;;;21.44;85.87;100980.75;5056787;28;20071;-59
2021/07/13 09:43:43;;;;;;;22.15;17.60;;;;;;;21.57;85.03;100987.47;5090929;28;20052;-59
2021/07/13 09:46:33;;;;;;;21.40;17.15;;;;;;;21.59;84.47;100980.09;5088646;28;20052;-58
2021/07/13 09:49:21;;;;;;;25.42;19.52;;;;;;;21.66;86.32;100978.41;5091024;28;20040;-58
2021/07/13 09:51:59;;;;;;;23.15;17.35;;;;;;;21.66;83.84;100969.56;5090644;28;20067;-59
2021/07/13 09:54:40;;;;;;;22.23;17.13;;;;;;;21.66;84.29;100978.41;5089821;28;20094;-59
2021/07/13 09:57:11;;;;;;;22.08;17.92;;;;;;;21.52;84.43;100969.22;5090724;28;20048;-58
2021/07/13 09:59:38;;;;;;;21.27;17.10;;;;;;;21.70;85.09;100974.38;5091102;28;20093;-59
2021/07/13 10:02:07;;;;;;;23.48;18.50;;;;;;;21.78;85.23;100979.72;5090780;28;20411;-59
2021/07/13 10:04:39;;;;;;;23.80;17.85;;;;;;;21.84;85.61;100980.91;5090876;28;20453;-59
2021/07/13 10:07:11;;;;;;;22.75;18.15;;;;;;;21.90;83.20;100984.75;5090394;28;20503;-58
2021/07/13 10:09:44;;;;;;;22.95;17.30;;;;;;;21.94;83.74;100988.75;5092940;28;20509;-53
2021/07/13 10:12:14;;;;;;;21.63;17.60;;;;;;;21.92;82.23;100982.72;5092637;28;20123;-53
2021/07/13 10:14:43;;;;;;;24.48;18.05;;;;;;;21.97;82.46;100979.53;5091388;28;20052;-53
2021/07/13 10:17:11;;;;;;;23.70;18.40;;;;;;;21.85;82.52;100987.09;5088699;28;20075;-54
2021/07/13 10:19:53;;;;;;;23.15;17.95;;;;;;;21.80;82.54;100990.28;5088017;28;20048;-53
2021/07/13 10:22:22;;;;;;;27.08;20.50;;;;;;;21.83;82.79;100997.13;5074774;28;20048;-53
2021/07/13 10:24:54;;;;;;;24.35;19.23;;;;;;;21.84;82.73;100998.78;5092440;28;20135;-53
2021/07/13 10:27:32;;;;;;;23.63;19.33;;;;;;;21.84;82.20;100993.44;5092915;28;20051;-54
2021/07/13 10:30:08;;;;;;;22.38;16.85;;;;;;;21.86;81.19;101000.31;5092245;28;20067;-54
2021/07/13 10:32:40;;;;;;;21.90;17.83;;;;;;;21.81;81.42;101004.50;5090463;28;20427;-52
2021/07/13 10:35:24;;;;;;;19.85;16.70;;;;;;;21.98;80.12;101002.59;5087799;28;20051;-53
2021/07/13 10:37:58;;;;;;;21.15;16.40;;;;;;;21.94;81.29;100999.44;5090185;28;20083;-52
2021/07/13 10:40:25;;;;;;;21.25;16.77;;;;;;;21.96;81.43;101005.47;5092462;28;20719;-53
2021/07/13 10:42:53;;;;;;;21.00;16.65;;;;;;;22.00;80.64;101004.09;5092549;28;20040;-52
2021/07/13 10:45:31;;;;;;;22.23;17.48;;;;;;;22.05;81.78;101015.16;5092502;28;20040;-52
2021/07/13 10:48:17;;;;;;;21.15;17.05;;;;;;;22.10;82.07;101007.44;5089014;28;20135;-51
2021/07/13 10:50:48;;;;;;;21.48;16.25;;;;;;;22.07;81.90;101012.28;5087670;28;20123;-53
2021/07/13 10:53:31;;;;;;;19.90;15.88;;;;;;;22.13;79.82;101008.94;5088836;28;20052;-51
2021/07/13 10:56:04;;;;;;;17.77;14.63;;;;;;;22.09;79.18;101012.97;5091921;28;20044;-53
2021/07/13 10:58:39;;;;;;;17.05;13.55;;;;;;;22.11;78.68;101008.25;5092036;28;20408;-53
2021/07/13 11:01:21;;;;;;;20.38;15.80;;;;;;;22.10;79.18;101007.44;5090923;28;20086;-54
2021/07/13 11:03:49;;;;;;;20.10;16.00;;;;;;;22.07;79.28;101012.28;5089314;28;20119;-52
2021/07/13 11:06:18;;;;;;;20.52;15.70;;;;;;;22.14;79.12;101007.09;5094178;28;20552;-54
2021/07/13 11:08:45;;;;;;;20.33;16.45;;;;;;;22.20;80.92;101004.56;5096163;28;20097;-51
2021/07/13 11:11:15;;;;;;;20.77;16.13;;;;;;;22.16;79.68;101007.75;5096310;28;20101;-54
2021/07/13 11:13:45;;;;;;;20.75;17.58;;;;;;;22.06;78.47;101008.78;5096085;28;20097;-53
2021/07/13 11:16:13;;;;;;;22.40;17.48;;;;;;;22.03;78.65;101000.25;5094746;28;20056;-53
2021/07/13 11:18:42;;;;;;;23.90;18.60;;;;;;;22.07;79.50;101007.78;5077954;28;20054;-55
2021/07/13 11:21:23;;;;;;;21.25;17.40;;;;;;;22.14;79.40;101004.41;5095972;28;20368;-51